createdAt,value
2023-04-23T00:00:51.889Z,20.95
2023-04-23T00:03:22.875Z,20.98
2023-04-23T00:05:54.559Z,21.17
2023-04-23T00:08:24.576Z,22.88
2023-04-23T00:10:53.674Z,21.60
2023-04-23T00:13:25.091Z,19.98
2023-04-23T00:15:54.519Z,20.73
2023-04-23T00:18:23.638Z,20.40
2023-04-23T00:20:52.610Z,21.73
2023-04-23T00:23:21.460Z,19.08
2023-04-23T00:25:50.142Z,19.67
2023-04-23T00:28:21.513Z,21.80
2023-04-23T00:30:52.630Z,17.75
2023-04-23T00:35:50.410Z,19.88
2023-04-23T00:38:21.125Z,20.88
2023-04-23T00:40:50.381Z,19.77
2023-04-23T00:43:19.569Z,19.95
2023-04-23T00:45:48.960Z,19.48
2023-04-23T00:48:19.837Z,19.30
2023-04-23T00:50:48.862Z,19.05
2023-04-23T00:53:18.841Z,20.55
2023-04-23T00:55:47.814Z,20.77
2023-04-23T00:58:17.611Z,20.02
2023-04-23T01:00:48.723Z,19.17
2023-04-23T01:03:22.063Z,18.35
2023-04-23T01:05:52.141Z,19.38
2023-04-23T01:08:23.220Z,21.05
2023-04-23T01:10:52.382Z,21.25
2023-04-23T01:13:22.417Z,19.20
2023-04-23T01:15:51.459Z,18.90
2023-04-23T01:18:21.770Z,20.52
2023-04-23T01:20:51.895Z,19.25
2023-04-23T01:23:22.657Z,18.33
2023-04-23T01:25:51.437Z,19.35
2023-04-23T01:28:23.034Z,19.15
2023-04-23T01:30:52.595Z,18.90
2023-04-23T01:33:22.241Z,18.90
2023-04-23T01:35:51.384Z,17.80
2023-04-23T01:38:22.372Z,18.55
2023-04-23T01:40:51.154Z,18.08
2023-04-23T01:43:20.207Z,17.77
2023-04-23T01:45:49.301Z,18.27
2023-04-23T01:48:18.661Z,19.05
2023-04-23T01:50:47.750Z,17.52
2023-04-23T01:53:17.834Z,17.27
2023-04-23T01:55:49.292Z,16.42
2023-04-23T01:58:19.184Z,17.45
2023-04-23T02:00:48.228Z,16.63
2023-04-23T02:03:22.839Z,18.60
2023-04-23T02:05:52.419Z,17.52
2023-04-23T02:08:21.393Z,16.50
2023-04-23T02:10:51.753Z,18.27
2023-04-23T02:13:20.821Z,17.95
2023-04-23T02:15:49.986Z,18.70
2023-04-23T02:18:19.024Z,17.23
2023-04-23T02:20:48.014Z,16.80
2023-04-23T02:23:17.084Z,17.52
2023-04-23T02:25:46.191Z,16.08
2023-04-23T02:28:16.594Z,17.73
2023-04-23T02:30:48.070Z,17.83
2023-04-23T02:33:17.230Z,18.08
2023-04-23T02:35:46.233Z,16.88
2023-04-23T02:38:15.167Z,17.10
2023-04-23T02:40:43.902Z,17.13
2023-04-23T02:43:13.162Z,16.85
2023-04-23T02:45:44.912Z,17.10
2023-04-23T02:48:13.979Z,17.85
2023-04-23T02:50:42.985Z,17.80
2023-04-23T02:53:12.084Z,16.85
2023-04-23T02:55:40.761Z,16.08
2023-04-23T02:58:09.711Z,17.20
2023-04-23T03:00:40.271Z,16.55
2023-04-23T03:03:12.472Z,17.48
2023-04-23T03:05:41.815Z,16.77
2023-04-23T03:08:10.858Z,15.88
2023-04-23T03:10:39.733Z,15.40
2023-04-23T03:13:08.681Z,17.58
2023-04-23T03:15:37.662Z,16.63
2023-04-23T03:18:08.425Z,17.48
2023-04-23T03:20:40.063Z,16.42
2023-04-23T03:25:37.348Z,16.10
2023-04-23T03:28:06.328Z,17.58
2023-04-23T03:30:35.782Z,16.33
2023-04-23T03:33:05.043Z,16.40
2023-04-23T03:35:34.238Z,16.65
2023-04-23T03:38:07.535Z,16.85
2023-04-23T03:40:37.550Z,16.67
2023-04-23T03:43:09.347Z,15.75
2023-04-23T03:45:58.614Z,13.55
2023-04-23T03:48:28.124Z,18.00
2023-04-23T03:50:57.936Z,17.20
2023-04-23T03:53:42.392Z,16.75
2023-04-23T03:56:29.917Z,16.63
2023-04-23T03:59:20.905Z,15.05
2023-04-23T04:01:52.793Z,16.65
2023-04-23T04:09:23.840Z,15.88
2023-04-23T04:11:53.366Z,14.88
2023-04-23T04:14:22.862Z,15.70
2023-04-23T04:16:51.636Z,16.15
2023-04-23T04:19:20.542Z,15.38
2023-04-23T04:21:49.455Z,15.43
2023-04-23T04:24:18.511Z,14.73
2023-04-23T04:26:48.811Z,16.23
2023-04-23T04:31:46.735Z,15.82
2023-04-23T04:34:15.832Z,13.73
2023-04-23T04:36:44.935Z,14.63
2023-04-23T04:39:14.878Z,14.50
2023-04-23T04:41:43.787Z,15.85
2023-04-23T04:44:14.698Z,15.07
2023-04-23T04:46:43.320Z,15.07
2023-04-23T04:49:12.687Z,15.23
2023-04-23T04:51:42.569Z,15.52
2023-04-23T04:54:11.608Z,14.63
2023-04-23T04:56:40.853Z,15.07
2023-04-23T04:59:09.840Z,14.43
2023-04-23T05:01:40.210Z,13.77
2023-04-23T05:04:09.513Z,14.85
2023-04-23T05:06:38.578Z,16.55
2023-04-23T05:09:08.389Z,16.27
2023-04-23T05:11:37.406Z,15.73
2023-04-23T05:14:06.434Z,16.33
2023-04-23T05:16:35.901Z,14.77
2023-04-23T05:19:06.506Z,16.15
2023-04-23T05:21:35.604Z,17.40
2023-04-23T05:24:04.803Z,16.25
2023-04-23T05:26:34.917Z,16.33
2023-04-23T05:29:04.226Z,16.13
2023-04-23T05:31:32.755Z,14.95
2023-04-23T05:34:01.890Z,16.10
2023-04-23T05:36:32.392Z,15.57
2023-04-23T05:39:01.410Z,14.38
2023-04-23T05:41:30.438Z,15.93
2023-04-23T05:43:59.402Z,15.45
2023-04-23T05:46:27.976Z,14.40
2023-04-23T05:48:56.958Z,15.57
2023-04-23T05:51:25.830Z,16.10
2023-04-23T05:53:56.247Z,14.77
2023-04-23T05:58:53.410Z,14.80
2023-04-23T06:01:22.402Z,12.55
2023-04-23T06:03:51.489Z,14.38
2023-04-23T06:06:20.661Z,14.40
2023-04-23T06:08:51.102Z,14.10
2023-04-23T06:13:49.885Z,13.73
2023-04-23T06:16:18.840Z,12.38
2023-04-23T06:18:48.470Z,13.38
2023-04-23T06:21:18.146Z,12.02
2023-04-23T06:23:48.168Z,12.60
2023-04-23T06:26:17.164Z,12.73
2023-04-23T06:28:48.849Z,11.32
2023-04-23T06:31:45.722Z,11.75
2023-04-23T06:34:14.708Z,10.50
2023-04-23T06:36:43.999Z,11.80
2023-04-23T06:39:13.063Z,10.13
2023-04-23T06:41:41.974Z,8.55
2023-04-23T06:44:21.166Z,8.50
2023-04-23T06:46:53.326Z,9.85
2023-04-23T06:49:22.551Z,9.52
2023-04-23T06:51:51.490Z,10.63
2023-04-23T06:54:21.051Z,10.23
2023-04-23T06:56:51.178Z,8.80
2023-04-23T06:59:21.601Z,9.80
2023-04-23T07:01:53.847Z,8.68
2023-04-23T07:04:22.830Z,8.73
2023-04-23T07:06:51.858Z,7.47
2023-04-23T07:09:20.716Z,8.38
2023-04-23T07:11:49.640Z,7.47
2023-04-23T07:14:18.503Z,7.65
2023-04-23T07:16:48.444Z,7.85
2023-04-23T07:21:46.011Z,6.38
2023-04-23T07:24:14.832Z,6.60
2023-04-23T07:26:43.859Z,6.80
2023-04-23T07:29:14.305Z,4.57
2023-04-23T07:31:43.006Z,5.95
2023-04-23T07:34:13.573Z,6.72
2023-04-23T07:36:42.475Z,5.82
2023-04-23T07:39:11.339Z,5.40
2023-04-23T07:41:40.462Z,6.82
2023-04-23T07:44:09.406Z,5.20
2023-04-23T07:46:37.925Z,6.45
2023-04-23T07:49:07.537Z,5.35
2023-04-23T07:51:37.873Z,6.25
2023-04-23T07:54:07.045Z,5.82
2023-04-23T07:56:36.449Z,5.10
2023-04-23T07:59:05.925Z,5.15
2023-04-23T08:01:34.740Z,4.45
2023-04-23T08:04:04.451Z,5.63
2023-04-23T08:06:35.607Z,5.18
2023-04-23T08:09:07.153Z,4.45
2023-04-23T08:11:36.282Z,4.30
2023-04-23T08:14:05.277Z,4.90
2023-04-23T08:16:35.261Z,4.53
2023-04-23T08:19:06.561Z,4.28
2023-04-23T08:21:37.551Z,4.90
2023-04-23T08:24:09.202Z,4.10
2023-04-23T08:26:38.152Z,4.60
2023-04-23T08:29:08.241Z,3.58
2023-04-23T08:31:39.322Z,3.90
2023-04-23T08:34:08.353Z,4.78
2023-04-23T08:36:37.944Z,4.03
2023-04-23T08:39:08.486Z,3.15
2023-04-23T08:41:43.015Z,3.47
2023-04-23T08:44:15.639Z,5.18
2023-04-23T08:46:45.638Z,3.45
2023-04-23T08:51:48.299Z,3.88
2023-04-23T08:54:23.837Z,3.80
2023-04-23T08:56:53.145Z,4.88
2023-04-23T08:59:23.192Z,2.85
2023-04-23T09:01:52.046Z,4.43
2023-04-23T09:04:21.032Z,3.95
2023-04-23T09:06:51.047Z,4.00
2023-04-23T09:09:23.838Z,5.28
2023-04-23T09:11:54.793Z,3.42
2023-04-23T09:14:25.656Z,3.70
2023-04-23T09:16:54.968Z,4.05
2023-04-23T09:19:25.289Z,4.40
2023-04-23T09:21:54.469Z,4.38
2023-04-23T09:24:25.471Z,3.55
2023-04-23T09:26:55.021Z,3.33
2023-04-23T09:29:24.791Z,3.63
2023-04-23T09:31:54.552Z,3.70
2023-04-23T09:34:25.431Z,2.65
2023-04-23T09:36:55.271Z,3.70
2023-04-23T09:39:25.939Z,2.92
2023-04-23T09:41:55.111Z,3.20
2023-04-23T09:44:24.181Z,3.67
2023-04-23T09:46:53.021Z,3.55
2023-04-23T09:49:22.058Z,3.57
2023-04-23T09:51:51.385Z,2.88
2023-04-23T09:54:23.679Z,3.50
2023-04-23T09:56:57.714Z,3.55
2023-04-23T09:59:39.540Z,3.38
2023-04-23T10:02:14.572Z,2.85
2023-04-23T10:04:43.947Z,3.10
2023-04-23T10:09:46.762Z,3.55
2023-04-23T10:14:53.962Z,3.50
2023-04-23T10:17:22.928Z,3.40
2023-04-23T10:19:51.887Z,2.40
2023-04-23T10:22:22.802Z,2.75
2023-04-23T10:24:56.515Z,2.67
2023-04-23T10:27:36.638Z,3.15
2023-04-23T10:30:10.771Z,3.25
2023-04-23T10:32:40.101Z,2.58
2023-04-23T10:35:10.582Z,2.70
2023-04-23T10:37:39.613Z,2.97
2023-04-23T10:40:11.806Z,3.40
2023-04-23T10:42:42.543Z,2.90
2023-04-23T10:45:24.034Z,3.35
2023-04-23T10:47:56.197Z,3.05
2023-04-23T10:50:27.400Z,3.42
2023-04-23T10:52:57.878Z,3.28
2023-04-23T10:55:29.231Z,3.05
2023-04-23T10:58:02.244Z,2.60
2023-04-23T11:00:46.010Z,3.15
2023-04-23T11:03:43.187Z,3.30
2023-04-23T11:06:15.798Z,3.08
2023-04-23T11:08:54.198Z,3.10
2023-04-23T11:11:29.050Z,2.97
2023-04-23T11:14:00.386Z,2.85
2023-04-23T11:16:29.886Z,2.67
2023-04-23T11:19:05.076Z,2.63
2023-04-23T11:21:59.997Z,3.60
2023-04-23T11:24:30.363Z,2.85
2023-04-23T11:26:59.948Z,3.65
2023-04-23T11:29:30.668Z,2.90
2023-04-23T11:32:03.066Z,3.70
2023-04-23T11:34:33.752Z,3.20
2023-04-23T11:37:05.122Z,3.08
2023-04-23T11:39:34.131Z,2.72
2023-04-23T11:42:03.488Z,3.13
2023-04-23T11:44:33.929Z,3.38
2023-04-23T11:47:03.540Z,2.78
2023-04-23T11:49:32.036Z,3.00
2023-04-23T11:52:02.143Z,2.67
2023-04-23T11:54:31.319Z,2.78
2023-04-23T11:57:00.715Z,3.13
2023-04-23T11:59:30.082Z,2.67
2023-04-23T12:02:03.507Z,3.03
2023-04-23T12:04:33.068Z,2.85
2023-04-23T12:09:39.355Z,3.05
2023-04-23T12:12:08.274Z,2.78
2023-04-23T12:17:12.715Z,2.70
2023-04-23T12:19:44.892Z,3.22
2023-04-23T12:22:15.251Z,2.67
2023-04-23T12:24:51.528Z,3.00
2023-04-23T12:27:22.151Z,3.13
2023-04-23T12:29:52.004Z,2.90
2023-04-23T12:32:26.035Z,3.08
2023-04-23T12:34:55.013Z,3.05
2023-04-23T12:37:27.047Z,2.70
2023-04-23T12:39:56.900Z,3.13
2023-04-23T12:42:28.629Z,3.22
2023-04-23T12:45:07.390Z,3.05
2023-04-23T12:47:38.574Z,3.03
2023-04-23T12:50:08.736Z,2.53
2023-04-23T12:52:38.321Z,2.90
2023-04-23T12:55:08.329Z,2.90
2023-04-23T12:57:37.207Z,3.30
2023-04-23T13:00:09.030Z,2.65
2023-04-23T13:02:40.109Z,2.67
2023-04-23T13:05:09.956Z,3.35
2023-04-23T13:07:38.480Z,3.55
2023-04-23T13:10:08.475Z,2.95
2023-04-23T13:12:37.457Z,3.05
2023-04-23T13:15:07.422Z,3.00
2023-04-23T13:17:37.456Z,3.10
2023-04-23T13:20:09.118Z,3.33
2023-04-23T13:22:37.820Z,3.20
2023-04-23T13:25:09.148Z,2.33
2023-04-23T13:27:38.140Z,3.13
2023-04-23T13:30:08.415Z,2.88
2023-04-23T13:32:37.306Z,3.40
2023-04-23T13:35:08.860Z,3.83
2023-04-23T13:37:37.507Z,3.10
2023-04-23T13:40:07.525Z,3.58
2023-04-23T13:42:36.444Z,2.60
2023-04-23T13:45:06.398Z,3.45
2023-04-23T13:50:06.994Z,3.13
2023-04-23T13:52:37.596Z,3.60
2023-04-23T13:55:07.727Z,3.22
2023-04-23T13:57:39.413Z,3.20
2023-04-23T14:00:12.009Z,3.53
2023-04-23T14:02:41.819Z,3.55
2023-04-23T14:05:11.440Z,3.65
2023-04-23T14:07:41.615Z,3.13
2023-04-23T14:10:11.778Z,2.78
2023-04-23T14:12:40.925Z,3.25
2023-04-23T14:15:10.957Z,3.10
2023-04-23T14:17:40.848Z,3.40
2023-04-23T14:22:38.244Z,3.25
2023-04-23T14:25:15.825Z,3.40
2023-04-23T14:27:47.597Z,3.15
2023-04-23T14:30:18.056Z,3.95
2023-04-23T14:32:49.227Z,3.25
2023-04-23T14:35:29.269Z,3.75
2023-04-23T14:38:04.675Z,3.38
2023-04-23T14:40:34.971Z,2.80
2023-04-23T14:45:35.912Z,3.50
2023-04-23T14:48:05.148Z,3.35
2023-04-23T14:50:34.122Z,3.08
2023-04-23T14:53:04.382Z,3.75
2023-04-23T14:55:34.886Z,3.65
2023-04-23T14:58:03.825Z,3.35
2023-04-23T15:00:32.717Z,2.90
2023-04-23T15:03:02.775Z,3.63
2023-04-23T15:05:33.173Z,3.60
2023-04-23T15:08:02.022Z,3.65
2023-04-23T15:10:30.602Z,3.20
2023-04-23T15:13:08.999Z,2.92
2023-04-23T15:15:45.303Z,3.70
2023-04-23T15:18:15.732Z,3.25
2023-04-23T15:20:45.203Z,3.88
2023-04-23T15:23:14.218Z,4.15
2023-04-23T15:25:42.682Z,4.18
2023-04-23T15:28:13.104Z,3.25
2023-04-23T15:30:44.879Z,3.13
2023-04-23T15:33:13.818Z,3.38
2023-04-23T15:35:42.712Z,4.10
2023-04-23T15:38:11.912Z,3.22
2023-04-23T15:40:42.612Z,3.47
2023-04-23T15:43:14.905Z,3.15
2023-04-23T15:45:46.082Z,2.95
2023-04-23T15:48:15.525Z,3.38
2023-04-23T15:50:44.600Z,3.13
2023-04-23T15:53:13.745Z,3.70
2023-04-23T15:55:44.607Z,3.67
2023-04-23T15:58:14.972Z,3.30
2023-04-23T16:00:44.152Z,3.70
2023-04-23T16:03:15.246Z,3.75
2023-04-23T16:05:45.048Z,3.33
2023-04-23T16:08:14.276Z,3.40
2023-04-23T16:10:44.968Z,3.90
2023-04-23T16:13:15.382Z,3.50
2023-04-23T16:15:44.389Z,3.42
2023-04-23T16:18:13.355Z,3.70
2023-04-23T16:20:42.434Z,3.42
2023-04-23T16:23:11.329Z,3.72
2023-04-23T16:25:40.272Z,3.35
2023-04-23T16:28:09.251Z,3.30
2023-04-23T16:30:39.713Z,3.90
2023-04-23T16:33:09.616Z,3.63
2023-04-23T16:35:38.745Z,4.13
2023-04-23T16:38:11.087Z,4.20
2023-04-23T16:40:40.004Z,3.83
2023-04-23T16:43:08.947Z,4.00
2023-04-23T16:45:39.865Z,3.88
2023-04-23T16:48:13.284Z,4.03
2023-04-23T16:50:43.232Z,4.13
2023-04-23T16:53:12.341Z,4.32
2023-04-23T16:55:40.901Z,3.95
2023-04-23T16:58:10.189Z,4.28
2023-04-23T17:00:40.730Z,4.40
2023-04-23T17:03:09.889Z,4.07
2023-04-23T17:05:40.818Z,3.80
2023-04-23T17:08:09.853Z,4.55
2023-04-23T17:10:38.640Z,5.25
2023-04-23T17:13:07.607Z,4.55
2023-04-23T17:18:10.496Z,4.25
2023-04-23T17:20:39.695Z,4.55
2023-04-23T17:23:08.618Z,4.43
2023-04-23T17:25:37.261Z,4.18
2023-04-23T17:28:06.423Z,4.80
2023-04-23T17:30:35.306Z,4.93
2023-04-23T17:33:04.270Z,4.38
2023-04-23T17:35:34.764Z,4.95
2023-04-23T17:38:03.837Z,5.20
2023-04-23T17:40:32.374Z,7.15
2023-04-23T17:43:01.548Z,7.43
2023-04-23T17:45:30.526Z,5.43
2023-04-23T17:47:59.631Z,5.43
2023-04-23T17:50:30.035Z,4.68
2023-04-23T17:53:00.044Z,4.25
2023-04-23T17:57:57.545Z,4.65
2023-04-23T18:00:28.755Z,5.15
2023-04-23T18:02:57.857Z,5.30
2023-04-23T18:05:27.024Z,5.18
2023-04-23T18:07:55.779Z,5.32
2023-04-23T18:10:26.479Z,5.20
2023-04-23T18:12:55.848Z,4.68
2023-04-23T18:15:25.935Z,5.05
2023-04-23T18:17:55.917Z,4.65
2023-04-23T18:20:26.616Z,6.03
2023-04-23T18:25:26.991Z,6.07
2023-04-23T18:27:56.200Z,5.60
2023-04-23T18:30:25.904Z,6.07
2023-04-23T18:33:01.993Z,5.43
2023-04-23T18:35:32.092Z,5.32
2023-04-23T18:38:03.435Z,5.80
2023-04-23T18:40:33.396Z,5.40
2023-04-23T18:45:31.025Z,5.80
2023-04-23T18:48:06.282Z,6.75
2023-04-23T18:50:39.521Z,6.75
2023-04-23T18:53:08.585Z,6.72
2023-04-23T18:55:38.707Z,7.88
2023-04-23T18:58:07.802Z,6.32
2023-04-23T19:00:36.780Z,5.50
2023-04-23T19:03:15.374Z,6.40
2023-04-23T19:05:53.237Z,5.38
2023-04-23T19:08:22.783Z,5.85
2023-04-23T19:10:52.794Z,6.57
2023-04-23T19:15:51.665Z,5.50
2023-04-23T19:18:20.863Z,6.55
2023-04-23T19:20:50.586Z,7.45
2023-04-23T19:23:19.952Z,8.15
2023-04-23T19:25:48.705Z,8.93
2023-04-23T19:28:19.198Z,8.73
2023-04-23T19:30:48.302Z,9.73
2023-04-23T19:33:17.232Z,9.05
2023-04-23T19:35:46.226Z,10.82
2023-04-23T19:38:16.261Z,9.27
2023-04-23T19:40:44.956Z,8.98
2023-04-23T19:43:14.045Z,8.80
2023-04-23T19:45:44.543Z,7.78
2023-04-23T19:48:13.624Z,6.03
2023-04-23T19:50:43.630Z,6.40
2023-04-23T19:53:12.576Z,6.05
2023-04-23T19:55:41.203Z,6.07
2023-04-23T19:58:10.208Z,6.32
2023-04-23T20:00:41.656Z,6.95
2023-04-23T20:03:12.594Z,6.65
2023-04-23T20:05:44.928Z,5.53
2023-04-23T20:10:55.034Z,5.68
2023-04-23T20:13:25.298Z,6.40
2023-04-23T20:18:29.268Z,6.72
2023-04-23T20:20:58.477Z,6.72
2023-04-23T20:23:27.359Z,7.00
2023-04-23T20:25:55.904Z,6.05
2023-04-23T20:28:25.067Z,6.43
2023-04-23T20:30:54.061Z,6.10
2023-04-23T20:33:23.003Z,7.10
2023-04-23T20:35:53.459Z,6.47
2023-04-23T20:40:52.057Z,6.45
2023-04-23T20:45:49.808Z,5.63
2023-04-23T20:48:20.047Z,5.97
2023-04-23T20:50:49.086Z,5.72
2023-04-23T20:53:19.706Z,7.28
2023-04-23T20:58:17.040Z,6.70
2023-04-23T21:00:46.042Z,7.25
2023-04-23T21:03:15.209Z,7.38
2023-04-23T21:05:44.765Z,7.47
2023-04-23T21:08:14.239Z,8.52
2023-04-23T21:10:44.192Z,7.88
2023-04-23T21:13:13.287Z,8.40
2023-04-23T21:15:42.333Z,7.93
2023-04-23T21:18:11.551Z,7.70
2023-04-23T21:20:40.505Z,8.48
2023-04-23T21:23:10.994Z,8.07
2023-04-23T21:25:40.562Z,8.10
2023-04-23T21:28:11.515Z,9.02
2023-04-23T21:30:47.810Z,7.47
2023-04-23T21:33:17.121Z,7.80
2023-04-23T21:35:46.339Z,8.40
2023-04-23T21:38:15.421Z,8.27
2023-04-23T21:40:44.297Z,8.68
2023-04-23T21:43:15.405Z,7.20
2023-04-23T21:45:44.428Z,8.32
2023-04-23T21:48:13.405Z,8.70
2023-04-23T21:50:42.375Z,7.90
2023-04-23T21:53:11.251Z,8.05
2023-04-23T21:55:39.804Z,8.75
2023-04-23T21:58:17.309Z,8.27
2023-04-23T22:00:49.130Z,9.10
2023-04-23T22:03:30.840Z,8.68
2023-04-23T22:06:09.607Z,8.90
2023-04-23T22:08:40.423Z,8.48
2023-04-23T22:11:09.800Z,8.57
2023-04-23T22:13:38.248Z,8.43
2023-04-23T22:16:24.286Z,8.82
2023-04-23T22:18:57.385Z,8.55
2023-04-23T22:21:26.421Z,7.80
2023-04-23T22:23:56.173Z,9.13
2023-04-23T22:26:25.092Z,8.73
2023-04-23T22:28:53.985Z,9.07
2023-04-23T22:31:24.366Z,9.57
2023-04-23T22:33:53.540Z,8.85
2023-04-23T22:36:22.406Z,8.77
2023-04-23T22:38:51.500Z,8.38
2023-04-23T22:41:20.991Z,8.88
2023-04-23T22:43:49.784Z,8.32
2023-04-23T22:46:19.016Z,8.82
2023-04-23T22:48:49.450Z,7.90
2023-04-23T22:51:18.874Z,9.95
2023-04-23T22:53:47.724Z,8.52
2023-04-23T22:56:16.662Z,9.02
2023-04-23T22:58:45.213Z,8.68
2023-04-23T23:01:14.482Z,9.10
2023-04-23T23:03:43.504Z,9.15
2023-04-23T23:06:14.033Z,8.23
2023-04-23T23:11:11.751Z,9.05
2023-04-23T23:13:40.726Z,8.63
2023-04-23T23:16:09.711Z,10.07
2023-04-23T23:18:38.775Z,9.63
2023-04-23T23:21:07.704Z,9.38
2023-04-23T23:23:38.329Z,9.32
2023-04-23T23:26:07.322Z,9.30
2023-04-23T23:28:36.122Z,10.30
2023-04-23T23:31:05.270Z,9.20
2023-04-23T23:33:35.740Z,8.45
2023-04-23T23:36:04.834Z,9.73
2023-04-23T23:38:33.869Z,10.18
2023-04-23T23:41:04.213Z,9.43
2023-04-23T23:43:32.783Z,9.60
2023-04-23T23:46:01.750Z,10.10
2023-04-23T23:48:30.904Z,9.95
2023-04-23T23:50:59.760Z,9.27
2023-04-23T23:53:28.655Z,10.35
2023-04-23T23:55:57.181Z,10.25
2023-04-23T23:58:29.392Z,10.15
